Time;durP1;ratioP1;P1;durP2;ratioP2;P2;SDS_P1;SDS_P2;PMS_P1;PMS_P2;Temp;Humidity;BMP_temperature;BMP_pressure;BME280_temperature;BME280_humidity;BME280_pressure;Samples;Min_cycle;Max_cycle;Signal;HPM_P1;HPM_P2
2022/08/06 00:00:14;;;;;;;1.07;0.90;;;16.10;99.90;;;;;;5008740;28;20522;-54
2022/08/06 00:02:41;;;;;;;1.47;0.80;;;16.10;99.90;;;;;;5013191;28;20514;-53
2022/08/06 00:05:09;;;;;;;2.83;1.00;;;16.10;99.90;;;;;;5017010;28;20514;-52
2022/08/06 00:07:35;;;;;;;1.10;0.50;;;16.00;99.90;;;;;;5009896;28;20468;-54
2022/08/06 00:10:02;;;;;;;2.40;1.10;;;16.10;99.90;;;;;;5011173;28;20519;-53
2022/08/06 00:12:32;;;;;;;1.17;0.90;;;16.00;99.90;;;;;;5008981;28;21016;-54
2022/08/06 00:14:59;;;;;;;1.90;0.97;;;16.00;99.90;;;;;;5011750;28;20974;-53
2022/08/06 00:17:26;;;;;;;0.97;0.90;;;15.90;99.90;;;;;;5017909;28;20538;-53
2022/08/06 00:19:52;;;;;;;2.93;0.80;;;15.90;99.90;;;;;;5005588;28;20530;-53
2022/08/06 00:22:19;;;;;;;2.73;0.93;;;15.90;99.90;;;;;;5011223;28;20549;-53
2022/08/06 00:24:45;;;;;;;1.63;0.80;;;15.80;99.90;;;;;;5008954;28;21037;-53
2022/08/06 00:27:12;;;;;;;0.60;0.47;;;15.90;99.90;;;;;;5016067;28;20467;-53
2022/08/06 00:29:40;;;;;;;1.03;0.90;;;15.80;99.90;;;;;;5009144;28;20568;-53
2022/08/06 00:32:07;;;;;;;1.27;0.80;;;15.80;99.90;;;;;;5005732;28;20537;-53
2022/08/06 00:34:34;;;;;;;1.53;1.13;;;15.80;99.90;;;;;;5010554;28;20468;-53
2022/08/06 00:37:01;;;;;;;1.73;1.00;;;15.70;99.90;;;;;;5009021;28;20466;-53
2022/08/06 00:39:27;;;;;;;1.17;0.80;;;15.70;99.90;;;;;;5017460;28;21105;-53
2022/08/06 00:41:54;;;;;;;1.47;0.90;;;15.70;99.90;;;;;;5003860;28;20488;-54
2022/08/06 00:44:20;;;;;;;1.10;0.80;;;15.60;99.90;;;;;;5011003;28;20492;-54
2022/08/06 00:46:49;;;;;;;4.20;1.00;;;15.60;99.90;;;;;;5011246;28;20491;-53
2022/08/06 00:49:16;;;;;;;1.57;0.60;;;15.60;99.90;;;;;;5011134;28;20475;-53
2022/08/06 00:51:43;;;;;;;2.30;0.60;;;15.50;99.90;;;;;;5016941;28;20518;-53
2022/08/06 00:54:09;;;;;;;1.00;0.70;;;15.50;99.90;;;;;;5010957;28;20466;-52
2022/08/06 00:56:36;;;;;;;2.00;0.93;;;15.50;99.90;;;;;;5009285;28;20995;-53
2022/08/06 00:59:04;;;;;;;1.27;0.70;;;15.50;99.90;;;;;;5007894;28;21021;-53
2022/08/06 01:01:31;;;;;;;1.80;1.70;;;15.40;99.90;;;;;;5007144;28;20907;-52
2022/08/06 01:03:59;;;;;;;1.17;0.90;;;15.40;99.90;;;;;;5010976;28;20471;-54
2022/08/06 01:06:26;;;;;;;0.70;0.70;;;15.30;99.90;;;;;;5008484;28;20571;-52
2022/08/06 01:08:52;;;;;;;1.53;0.70;;;15.30;99.90;;;;;;5008219;28;20495;-54
2022/08/06 01:11:19;;;;;;;1.30;0.70;;;15.20;99.90;;;;;;5017221;28;20479;-53
2022/08/06 01:13:46;;;;;;;0.93;0.70;;;15.20;99.90;;;;;;5007214;28;20491;-53
2022/08/06 01:16:18;;;;;;;1.73;0.80;;;15.10;99.90;;;;;;5010036;28;20498;-53
2022/08/06 01:18:51;;;;;;;1.43;0.53;;;15.10;99.90;;;;;;5018028;28;20484;-53
2022/08/06 01:21:45;;;;;;;1.60;0.60;;;15.00;99.90;;;;;;5019796;28;20484;-53
2022/08/06 01:24:44;;;;;;;0.93;0.60;;;15.10;99.90;;;;;;5004661;28;20488;-52
2022/08/06 01:27:37;;;;;;;2.73;0.80;;;15.00;99.90;;;;;;5009632;28;20455;-54
2022/08/06 01:30:07;;;;;;;0.60;0.60;;;15.00;99.90;;;;;;4997053;28;20522;-53
2022/08/06 01:32:38;;;;;;;4.20;1.20;;;15.00;99.90;;;;;;5003490;28;20510;-53
2022/08/06 01:35:09;;;;;;;2.57;0.60;;;14.90;99.90;;;;;;5005580;28;20944;-54
2022/08/06 01:37:40;;;;;;;1.17;0.60;;;14.90;99.90;;;;;;5006162;28;20546;-54
2022/08/06 01:40:12;;;;;;;2.87;0.70;;;14.80;99.90;;;;;;5015697;28;20464;-53
2022/08/06 01:42:41;;;;;;;0.80;0.80;;;14.80;99.90;;;;;;5005296;28;20495;-53
2022/08/06 01:45:12;;;;;;;0.90;0.43;;;14.80;99.90;;;;;;5009902;28;20487;-53
2022/08/06 01:47:42;;;;;;;1.77;0.80;;;14.70;99.90;;;;;;5009721;28;21110;-53
2022/08/06 01:50:10;;;;;;;1.17;1.07;;;14.70;99.90;;;;;;5013372;28;20909;-52
2022/08/06 01:52:41;;;;;;;5.63;0.90;;;14.70;99.90;;;;;;5001867;28;20585;-52
2022/08/06 01:55:10;;;;;;;1.57;0.90;;;14.60;99.90;;;;;;5019859;28;20926;-52
2022/08/06 01:57:39;;;;;;;2.20;0.70;;;14.50;99.90;;;;;;5016226;28;20456;-53
2022/08/06 02:00:08;;;;;;;1.83;0.97;;;14.50;99.90;;;;;;5019650;28;20517;-54
2022/08/06 02:02:36;;;;;;;0.70;0.60;;;14.40;99.90;;;;;;5010406;28;20494;-53
2022/08/06 02:05:06;;;;;;;1.33;0.60;;;14.40;99.90;;;;;;5004924;28;20459;-52
2022/08/06 02:07:36;;;;;;;0.87;0.57;;;14.30;99.90;;;;;;5017729;28;20489;-52
2022/08/06 02:10:06;;;;;;;1.37;0.60;;;14.40;99.90;;;;;;5012670;28;20487;-52
2022/08/06 02:12:35;;;;;;;1.50;0.70;;;14.40;99.90;;;;;;5011775;28;20483;-53
2022/08/06 02:15:05;;;;;;;1.17;0.50;;;14.30;99.90;;;;;;5014009;28;20487;-53
2022/08/06 02:17:38;;;;;;;0.93;0.60;;;14.30;99.90;;;;;;5012331;28;20877;-51
2022/08/06 02:20:06;;;;;;;0.90;0.70;;;14.20;99.90;;;;;;5010586;28;20977;-53
2022/08/06 02:22:37;;;;;;;5.33;0.57;;;14.20;99.90;;;;;;5013615;28;20538;-53
2022/08/06 02:25:08;;;;;;;1.00;0.83;;;14.20;99.90;;;;;;5025885;28;21229;-53
2022/08/06 02:27:38;;;;;;;2.20;0.67;;;14.10;99.90;;;;;;5011678;28;20510;-52
2022/08/06 02:30:06;;;;;;;2.30;0.67;;;14.10;99.90;;;;;;5018795;28;20910;-53
2022/08/06 02:32:34;;;;;;;2.00;0.77;;;14.10;99.90;;;;;;5011021;28;20539;-53
2022/08/06 02:35:01;;;;;;;2.60;0.70;;;14.00;99.90;;;;;;5016639;28;20553;-53
2022/08/06 02:37:31;;;;;;;0.80;0.70;;;14.00;99.90;;;;;;5013754;28;20463;-53
2022/08/06 02:40:05;;;;;;;1.53;1.03;;;14.00;99.90;;;;;;5013533;28;20502;-53
2022/08/06 02:42:35;;;;;;;1.00;0.83;;;14.00;99.90;;;;;;5009908;28;20455;-53
2022/08/06 02:45:04;;;;;;;1.17;0.40;;;14.00;99.90;;;;;;5017354;28;20479;-53
2022/08/06 02:47:38;;;;;;;1.17;0.57;;;13.90;99.90;;;;;;5006575;28;20464;-52
2022/08/06 02:50:07;;;;;;;3.43;0.80;;;13.90;99.90;;;;;;5015842;28;20511;-52
2022/08/06 02:52:39;;;;;;;1.10;0.83;;;13.90;99.90;;;;;;5013151;28;20579;-53
2022/08/06 02:55:12;;;;;;;1.47;0.73;;;13.90;99.90;;;;;;5011367;28;21376;-52
2022/08/06 02:57:41;;;;;;;1.57;0.83;;;13.80;99.90;;;;;;5010698;28;20511;-53
2022/08/06 03:00:10;;;;;;;1.63;0.80;;;13.70;99.90;;;;;;5015926;28;20935;-53
2022/08/06 03:02:40;;;;;;;1.10;0.80;;;13.70;99.90;;;;;;5008712;28;20460;-53
2022/08/06 03:05:11;;;;;;;1.10;0.80;;;13.70;99.90;;;;;;5012419;28;20491;-53
2022/08/06 03:07:40;;;;;;;1.63;0.90;;;13.70;99.90;;;;;;5006509;28;20490;-54
2022/08/06 03:10:09;;;;;;;2.10;0.60;;;13.70;99.90;;;;;;5014077;28;21047;-51
2022/08/06 03:12:37;;;;;;;1.67;0.70;;;13.70;99.90;;;;;;5006720;28;20519;-51
2022/08/06 03:15:05;;;;;;;0.80;0.63;;;13.70;99.90;;;;;;5007819;28;20957;-50
2022/08/06 03:17:33;;;;;;;0.70;0.67;;;13.60;99.90;;;;;;5013343;28;20491;-51
2022/08/06 03:20:04;;;;;;;1.63;0.87;;;13.60;99.90;;;;;;5009835;28;21078;-51
2022/08/06 03:22:32;;;;;;;1.60;1.17;;;13.60;99.90;;;;;;5008309;28;20501;-51
2022/08/06 03:24:59;;;;;;;1.47;0.77;;;13.60;99.90;;;;;;5013555;28;21001;-51
2022/08/06 03:27:27;;;;;;;2.00;0.80;;;13.50;99.90;;;;;;5008876;28;20468;-52
2022/08/06 03:29:55;;;;;;;1.27;0.50;;;13.50;99.90;;;;;;5012475;28;20998;-52
2022/08/06 03:32:22;;;;;;;1.20;0.90;;;13.50;99.90;;;;;;5004703;28;20581;-51
2022/08/06 03:34:49;;;;;;;1.10;0.93;;;13.50;99.90;;;;;;5010370;28;20518;-52
2022/08/06 03:37:19;;;;;;;2.13;1.10;;;13.40;99.90;;;;;;5008965;28;20498;-52
2022/08/06 03:39:47;;;;;;;1.77;1.00;;;13.40;99.90;;;;;;5010254;28;20519;-52
2022/08/06 03:42:14;;;;;;;1.23;0.90;;;13.40;99.90;;;;;;5013550;28;20488;-52
2022/08/06 03:44:41;;;;;;;2.80;0.93;;;13.40;99.90;;;;;;5016647;28;20491;-51
2022/08/06 03:47:12;;;;;;;1.53;0.80;;;13.40;99.90;;;;;;5009829;28;20506;-50
2022/08/06 03:49:42;;;;;;;2.30;1.03;;;13.30;99.90;;;;;;5007452;28;20542;-50
2022/08/06 03:52:14;;;;;;;4.40;0.60;;;13.30;99.90;;;;;;5008116;28;20531;-50
2022/08/06 03:54:47;;;;;;;1.33;1.00;;;13.30;99.90;;;;;;5011043;28;20459;-51
2022/08/06 03:57:18;;;;;;;0.90;0.90;;;13.20;99.90;;;;;;5017418;28;20485;-51
2022/08/06 03:59:47;;;;;;;1.07;0.63;;;13.20;99.90;;;;;;5012666;28;20503;-51
2022/08/06 04:02:15;;;;;;;0.90;0.80;;;13.20;99.90;;;;;;5009900;28;20493;-51
2022/08/06 04:04:43;;;;;;;2.93;1.17;;;13.10;99.90;;;;;;5011331;28;20456;-51
2022/08/06 04:07:11;;;;;;;1.57;0.70;;;13.20;99.90;;;;;;5010307;28;20459;-51
2022/08/06 04:09:39;;;;;;;3.13;0.90;;;13.20;99.90;;;;;;5016320;28;20511;-52
2022/08/06 04:12:08;;;;;;;3.57;0.60;;;13.20;99.90;;;;;;5008769;28;20518;-51
2022/08/06 04:14:35;;;;;;;1.97;0.70;;;13.20;99.90;;;;;;5011664;28;20491;-51
2022/08/06 04:17:04;;;;;;;1.43;0.93;;;13.10;99.90;;;;;;5016229;28;20491;-51
2022/08/06 04:19:31;;;;;;;1.27;0.77;;;13.20;99.90;;;;;;5010003;28;20511;-51
2022/08/06 04:21:58;;;;;;;1.13;0.60;;;13.10;99.90;;;;;;5014967;28;20522;-51
2022/08/06 04:24:26;;;;;;;11.73;1.10;;;13.10;99.90;;;;;;5010228;28;20590;-52
2022/08/06 04:26:54;;;;;;;1.83;0.97;;;13.20;99.90;;;;;;5012404;28;20506;-51
2022/08/06 04:29:23;;;;;;;0.90;0.67;;;13.20;99.90;;;;;;5013555;28;20530;-50
2022/08/06 04:31:52;;;;;;;1.83;1.20;;;13.20;99.90;;;;;;5010477;28;21003;-51
2022/08/06 04:34:25;;;;;;;0.80;0.73;;;13.20;99.90;;;;;;5013751;28;20460;-50
2022/08/06 04:36:54;;;;;;;1.37;0.70;;;13.20;99.90;;;;;;5009784;28;20496;-51
2022/08/06 04:39:21;;;;;;;1.43;0.60;;;13.20;99.90;;;;;;5010395;28;20523;-50
2022/08/06 04:41:48;;;;;;;0.80;0.50;;;13.20;99.90;;;;;;5012622;28;20486;-53
2022/08/06 04:44:16;;;;;;;2.73;1.00;;;13.20;99.90;;;;;;5011104;28;20259;-52
2022/08/06 04:46:48;;;;;;;1.30;0.73;;;13.20;99.90;;;;;;5008470;28;20491;-52
2022/08/06 04:49:15;;;;;;;2.97;1.00;;;13.20;99.90;;;;;;5004007;28;20992;-52
2022/08/06 04:51:41;;;;;;;5.00;0.97;;;13.10;99.90;;;;;;5012046;28;20519;-52
2022/08/06 04:54:08;;;;;;;1.43;0.70;;;13.20;99.90;;;;;;5009424;28;20970;-51
2022/08/06 04:56:34;;;;;;;1.23;0.90;;;13.10;99.90;;;;;;5006927;28;20495;-51
2022/08/06 04:59:01;;;;;;;2.10;0.90;;;13.10;99.90;;;;;;5011413;28;20479;-51
2022/08/06 05:01:27;;;;;;;3.73;0.60;;;13.20;99.90;;;;;;5012604;28;20494;-51
2022/08/06 05:03:55;;;;;;;3.03;0.93;;;13.10;99.90;;;;;;5011059;28;20497;-51
2022/08/06 05:06:26;;;;;;;2.57;0.70;;;13.20;99.90;;;;;;5008024;28;20503;-52
2022/08/06 05:08:59;;;;;;;3.43;1.57;;;13.20;99.90;;;;;;5007997;28;20570;-51
2022/08/06 05:11:29;;;;;;;1.10;0.80;;;13.10;99.90;;;;;;5008842;28;20459;-52
2022/08/06 05:14:03;;;;;;;3.50;1.00;;;13.10;99.90;;;;;;5018202;28;20491;-52
2022/08/06 05:16:35;;;;;;;1.50;1.00;;;13.10;99.90;;;;;;5008302;28;20495;-52
2022/08/06 05:19:06;;;;;;;1.10;1.00;;;13.20;99.90;;;;;;5011393;28;21032;-52
2022/08/06 05:21:36;;;;;;;1.33;1.23;;;13.20;99.90;;;;;;5016872;28;20557;-51
2022/08/06 05:24:04;;;;;;;0.60;0.60;;;13.20;99.90;;;;;;5008994;28;20491;-51
2022/08/06 05:26:31;;;;;;;1.63;0.90;;;13.20;99.90;;;;;;5017741;28;20486;-51
2022/08/06 05:28:58;;;;;;;0.87;0.87;;;13.30;99.90;;;;;;5006620;28;21012;-51
2022/08/06 05:31:32;;;;;;;2.70;1.40;;;13.30;99.90;;;;;;5002670;28;20495;-52
2022/08/06 05:33:58;;;;;;;1.33;1.23;;;13.30;99.90;;;;;;5014494;28;20459;-51
2022/08/06 05:36:26;;;;;;;3.53;0.77;;;13.40;99.90;;;;;;5009994;28;20491;-52
2022/08/06 05:38:53;;;;;;;3.00;1.00;;;13.50;99.90;;;;;;5013984;28;20491;-51
2022/08/06 05:41:20;;;;;;;3.43;0.97;;;13.60;99.90;;;;;;5014053;28;20489;-52
2022/08/06 05:43:47;;;;;;;1.00;0.70;;;13.60;99.90;;;;;;5015953;28;20522;-53
2022/08/06 05:46:18;;;;;;;9.37;1.40;;;13.70;99.90;;;;;;5021952;28;20499;-52
2022/08/06 05:48:53;;;;;;;4.30;0.90;;;13.80;99.90;;;;;;5012561;28;21008;-51
2022/08/06 05:51:29;;;;;;;1.50;1.00;;;13.80;99.90;;;;;;5012873;28;20486;-52
2022/08/06 05:54:04;;;;;;;2.70;1.13;;;13.80;99.90;;;;;;5006604;28;20536;-52
2022/08/06 05:56:36;;;;;;;5.03;0.93;;;13.80;99.90;;;;;;5010790;28;20502;-53
2022/08/06 05:59:05;;;;;;;1.80;1.00;;;13.90;99.90;;;;;;5023146;28;20507;-56
2022/08/06 06:01:33;;;;;;;3.13;1.00;;;14.00;99.90;;;;;;5010684;28;21007;-51
2022/08/06 06:04:00;;;;;;;4.93;1.10;;;14.00;99.90;;;;;;5013311;28;20492;-51
2022/08/06 06:06:29;;;;;;;0.83;0.80;;;14.10;99.90;;;;;;5011812;28;20954;-52
2022/08/06 06:08:55;;;;;;;0.80;0.53;;;14.20;99.90;;;;;;5012919;28;20461;-51
2022/08/06 06:11:23;;;;;;;3.47;1.07;;;14.30;99.90;;;;;;5014217;28;20938;-53
2022/08/06 06:13:50;;;;;;;0.80;0.70;;;14.40;99.90;;;;;;5013656;28;20849;-52
2022/08/06 06:16:24;;;;;;;2.80;1.07;;;14.50;99.90;;;;;;5008518;28;20491;-51
2022/08/06 06:19:04;;;;;;;1.57;1.07;;;14.60;99.90;;;;;;5015189;28;20538;-51
2022/08/06 06:21:48;;;;;;;3.43;0.90;;;14.60;99.90;;;;;;5008483;28;20491;-51
2022/08/06 06:24:21;;;;;;;1.47;0.80;;;14.70;99.90;;;;;;5010610;28;20486;-51
2022/08/06 06:26:55;;;;;;;1.07;0.90;;;14.80;99.90;;;;;;5014734;28;20995;-51
2022/08/06 06:29:35;;;;;;;8.20;1.20;;;14.90;99.90;;;;;;5015618;28;21012;-51
2022/08/06 06:32:08;;;;;;;1.07;0.80;;;14.90;99.90;;;;;;5010833;28;20502;-51
2022/08/06 06:34:51;;;;;;;1.20;0.60;;;14.90;99.90;;;;;;5025717;28;20978;-51
2022/08/06 06:37:27;;;;;;;2.50;0.77;;;15.00;99.90;;;;;;5012348;28;20494;-50
2022/08/06 06:40:03;;;;;;;3.63;0.87;;;15.10;99.90;;;;;;5010057;28;20517;-50
2022/08/06 06:42:35;;;;;;;2.43;0.80;;;15.10;99.90;;;;;;5006896;28;20455;-52
2022/08/06 06:45:08;;;;;;;4.53;0.90;;;15.20;99.90;;;;;;5004352;28;20472;-53
2022/08/06 06:47:44;;;;;;;1.83;0.73;;;15.30;99.90;;;;;;5012062;28;20483;-51
2022/08/06 06:50:19;;;;;;;0.70;0.50;;;15.40;99.90;;;;;;5019824;28;20486;-51
2022/08/06 06:52:50;;;;;;;2.30;0.60;;;15.50;99.90;;;;;;5011657;28;20510;-51
2022/08/06 06:55:24;;;;;;;1.10;0.63;;;15.50;99.90;;;;;;5012581;28;20526;-51
2022/08/06 06:57:55;;;;;;;2.70;0.80;;;15.50;99.90;;;;;;5012556;28;20455;-51
2022/08/06 07:00:22;;;;;;;2.10;0.80;;;15.60;99.90;;;;;;5009334;28;20525;-51
2022/08/06 07:02:49;;;;;;;1.27;1.00;;;15.60;99.90;;;;;;5016867;28;20490;-51
2022/08/06 07:05:17;;;;;;;1.70;1.00;;;15.70;99.90;;;;;;5013563;28;20456;-51
2022/08/06 07:07:46;;;;;;;1.13;1.00;;;15.70;99.90;;;;;;5012039;28;21075;-51
2022/08/06 07:10:16;;;;;;;3.90;1.13;;;15.80;99.90;;;;;;5006038;28;21001;-51
2022/08/06 07:12:45;;;;;;;2.20;1.00;;;15.90;99.90;;;;;;5014074;28;20511;-52
2022/08/06 07:15:14;;;;;;;2.50;1.07;;;16.00;99.90;;;;;;5010300;28;20973;-52
2022/08/06 07:17:42;;;;;;;1.57;0.97;;;16.20;99.90;;;;;;5015848;28;20483;-50
2022/08/06 07:20:12;;;;;;;1.77;0.70;;;16.30;99.90;;;;;;5015796;28;20849;-51
2022/08/06 07:22:42;;;;;;;3.27;0.93;;;16.40;99.90;;;;;;5010182;28;20514;-51
2022/08/06 07:25:14;;;;;;;7.50;0.90;;;16.50;99.90;;;;;;5013395;28;20534;-50
2022/08/06 07:27:43;;;;;;;2.70;0.83;;;16.70;20.10;;;;;;5010268;28;20491;-52
2022/08/06 07:30:11;;;;;;;0.73;0.70;;;16.80;20.90;;;;;;5012641;28;20522;-50
2022/08/06 07:32:39;;;;;;;3.80;0.90;;;16.80;26.30;;;;;;5001932;28;20520;-51
2022/08/06 07:35:08;;;;;;;2.10;0.90;;;16.80;30.10;;;;;;5006745;28;20491;-50
2022/08/06 07:37:36;;;;;;;1.03;0.90;;;16.90;37.90;;;;;;5011743;28;20538;-52
2022/08/06 07:40:07;;;;;;;2.00;1.00;;;17.00;39.40;;;;;;5017690;28;20475;-51
2022/08/06 07:42:36;;;;;;;1.43;0.70;;;17.00;37.40;;;;;;5002582;28;20452;-50
2022/08/06 07:45:06;;;;;;;1.77;0.80;;;17.10;35.40;;;;;;5013924;28;20518;-51
2022/08/06 07:47:36;;;;;;;1.23;0.60;;;17.20;43.80;;;;;;5008062;28;20463;-50
2022/08/06 07:50:03;;;;;;;1.70;0.87;;;17.30;62.00;;;;;;5009475;28;20515;-52
2022/08/06 07:52:31;;;;;;;1.77;0.70;;;17.20;59.90;;;;;;5011946;28;20519;-51
2022/08/06 07:54:59;;;;;;;1.10;0.73;;;17.30;57.90;;;;;;5013939;28;20459;-52
2022/08/06 07:57:27;;;;;;;0.87;0.67;;;17.40;58.60;;;;;;5013519;28;20503;-52
2022/08/06 07:59:55;;;;;;;2.20;0.70;;;17.50;65.90;;;;;;5008884;28;20506;-51
2022/08/06 08:02:24;;;;;;;2.30;1.03;;;17.50;69.30;;;;;;5010141;28;20495;-53
2022/08/06 08:07:35;;;;;;;5.03;0.87;;;17.60;79.10;;;;;;5010265;28;20443;-52
2022/08/06 08:10:02;;;;;;;1.23;0.50;;;17.60;83.10;;;;;;5006671;28;20530;-51
2022/08/06 08:12:30;;;;;;;1.53;0.53;;;17.60;80.00;;;;;;5002904;28;20468;-52
2022/08/06 08:14:58;;;;;;;1.13;0.70;;;17.80;85.80;;;;;;5012300;28;20495;-52
2022/08/06 08:17:25;;;;;;;3.83;0.80;;;17.80;98.60;;;;;;5010651;28;20483;-51
2022/08/06 08:19:52;;;;;;;1.47;0.57;;;17.90;99.90;;;;;;5011428;28;20502;-51
2022/08/06 08:22:20;;;;;;;1.43;0.50;;;18.10;99.90;;;;;;5006052;28;20459;-52
2022/08/06 08:24:48;;;;;;;2.80;0.57;;;18.20;99.90;;;;;;5013366;28;20464;-52
2022/08/06 08:27:14;;;;;;;1.80;0.70;;;18.30;99.90;;;;;;5007823;28;20963;-51
2022/08/06 08:29:42;;;;;;;1.43;0.83;;;18.50;99.90;;;;;;5010884;28;20515;-51
2022/08/06 08:32:10;;;;;;;0.60;0.57;;;18.70;99.90;;;;;;5018778;28;20452;-51
2022/08/06 08:34:37;;;;;;;0.60;0.43;;;18.70;99.90;;;;;;5010265;28;20483;-51
2022/08/06 08:37:04;;;;;;;2.60;0.80;;;18.70;99.90;;;;;;5008748;28;20491;-51
2022/08/06 08:39:31;;;;;;;3.70;0.60;;;18.70;99.90;;;;;;5006722;28;20515;-51
2022/08/06 08:42:06;;;;;;;0.53;0.53;;;18.80;99.90;;;;;;5002644;28;20451;-52
2022/08/06 08:44:34;;;;;;;1.90;0.50;;;18.80;99.90;;;;;;5004275;28;20455;-51
2022/08/06 08:47:01;;;;;;;1.33;0.60;;;19.00;99.90;;;;;;5004400;28;20863;-52
2022/08/06 08:49:39;;;;;;;0.50;0.40;;;19.20;99.90;;;;;;5003711;28;20483;-51
2022/08/06 08:52:09;;;;;;;0.60;0.53;;;19.10;99.90;;;;;;5015375;28;20857;-51
2022/08/06 08:54:40;;;;;;;5.60;0.87;;;19.20;99.90;;;;;;5004045;28;20511;-52
2022/08/06 08:57:09;;;;;;;0.70;0.60;;;19.40;99.90;;;;;;5006215;28;20975;-51
2022/08/06 08:59:36;;;;;;;0.90;0.60;;;19.40;99.90;;;;;;5007617;28;21020;-52
2022/08/06 09:02:04;;;;;;;0.80;0.40;;;19.20;99.90;;;;;;5009199;28;20492;-51
2022/08/06 09:04:33;;;;;;;6.23;0.70;;;19.10;99.90;;;;;;5005977;28;20452;-51
2022/08/06 09:07:02;;;;;;;1.53;0.70;;;19.00;99.90;;;;;;5008974;28;20509;-52
2022/08/06 09:09:29;;;;;;;1.20;0.50;;;19.20;99.90;;;;;;5009619;28;20526;-51
2022/08/06 09:11:57;;;;;;;5.50;0.70;;;19.90;99.90;;;;;;5005201;28;20588;-52
2022/08/06 09:14:24;;;;;;;0.83;0.60;;;20.30;99.90;;;;;;5009518;28;20491;-51
2022/08/06 09:16:50;;;;;;;0.77;0.50;;;20.60;99.90;;;;;;5009028;28;20961;-52
2022/08/06 09:19:17;;;;;;;1.00;0.77;;;20.10;99.90;;;;;;5011784;28;21021;-51
2022/08/06 09:21:45;;;;;;;2.67;0.77;;;20.00;99.90;;;;;;5010191;28;20491;-50
2022/08/06 09:24:12;;;;;;;3.93;0.60;;;19.60;99.90;;;;;;5010039;28;20491;-51
2022/08/06 09:26:39;;;;;;;3.03;1.20;;;19.50;99.90;;;;;;5012168;28;20518;-50
2022/08/06 09:29:20;;;;;;;2.47;0.70;;;19.40;99.90;;;;;;5005924;28;20565;-51
2022/08/06 09:31:47;;;;;;;1.43;0.50;;;19.20;99.90;;;;;;5010761;28;20470;-51
2022/08/06 09:34:14;;;;;;;1.17;0.80;;;19.10;99.90;;;;;;5020187;28;21044;-50
2022/08/06 09:36:47;;;;;;;1.50;0.60;;;19.20;99.90;;;;;;5011819;28;20513;-51
2022/08/06 09:39:14;;;;;;;0.50;0.40;;;19.50;99.90;;;;;;5008894;28;20511;-51
2022/08/06 09:41:46;;;;;;;2.07;0.60;;;19.70;1.40;;;;;;5011869;28;20463;-51
2022/08/06 09:44:13;;;;;;;0.90;0.63;;;20.10;99.90;;;;;;5009632;28;20491;-51
2022/08/06 09:46:41;;;;;;;1.77;0.70;;;20.30;99.90;;;;;;5039474;23;20522;-50
2022/08/06 09:49:10;;;;;;;1.30;0.90;;;20.50;99.90;;;;;;5028417;28;20475;-50
2022/08/06 09:51:37;;;;;;;1.93;0.60;;;20.70;99.90;;;;;;5025981;28;20498;-50
2022/08/06 09:54:08;;;;;;;1.70;0.73;;;20.50;99.90;;;;;;5030235;28;20577;-49
2022/08/06 09:56:35;;;;;;;0.67;0.43;;;20.50;99.90;;;;;;5020416;28;20483;-49
2022/08/06 09:59:04;;;;;;;0.87;0.40;;;20.50;99.90;;;;;;5009017;28;21046;-52
2022/08/06 10:01:39;;;;;;;1.20;0.43;;;20.60;99.90;;;;;;5007382;28;20518;-50
2022/08/06 10:04:05;;;;;;;1.00;0.70;;;20.40;99.90;;;;;;5002800;28;20791;-49
2022/08/06 10:06:32;;;;;;;0.93;0.40;;;20.80;99.90;;;;;;5009652;28;20515;-49
2022/08/06 10:09:09;;;;;;;1.90;0.40;;;21.00;99.90;;;;;;5011233;28;20455;-49
2022/08/06 10:11:41;;;;;;;0.60;0.40;;;21.10;99.90;;;;;;5000817;28;20455;-49
2022/08/06 10:14:21;;;;;;;0.80;0.80;;;21.20;99.90;;;;;;5002411;28;20577;-49
2022/08/06 10:17:04;;;;;;;1.60;0.53;;;20.90;99.90;;;;;;5005474;28;20468;-48
2022/08/06 10:19:31;;;;;;;1.27;0.37;;;20.60;99.90;;;;;;5001931;28;21323;-49
2022/08/06 10:22:04;;;;;;;1.30;0.60;;;20.50;99.90;;;;;;5012642;28;20452;-49
2022/08/06 10:24:33;;;;;;;1.23;0.33;;;20.60;99.90;;;;;;5022443;28;20463;-49
2022/08/06 10:27:00;;;;;;;0.60;0.60;;;20.70;99.90;;;;;;5009896;28;20499;-49
2022/08/06 10:29:27;;;;;;;0.83;0.40;;;20.70;99.90;;;;;;5007909;28;20518;-48
2022/08/06 10:31:56;;;;;;;2.40;0.33;;;20.80;99.90;;;;;;5006332;28;20498;-49
2022/08/06 10:34:27;;;;;;;2.83;0.90;;;20.70;99.90;;;;;;5007253;28;21032;-49
2022/08/06 10:36:57;;;;;;;0.60;0.60;;;20.60;99.90;;;;;;5006142;28;20578;-49
2022/08/06 10:39:27;;;;;;;0.90;0.50;;;20.70;99.90;;;;;;5006883;28;20460;-49
2022/08/06 10:41:55;;;;;;;1.00;0.53;;;20.50;99.90;;;;;;5010303;28;20509;-50
2022/08/06 10:44:23;;;;;;;1.00;0.37;;;20.70;99.90;;;;;;5003514;28;21040;-50
2022/08/06 10:46:52;;;;;;;1.53;0.40;;;20.80;99.90;;;;;;5013452;28;20554;-49
2022/08/06 10:49:20;;;;;;;3.23;0.43;;;20.90;99.90;;;;;;5012643;28;20965;-49
2022/08/06 10:51:48;;;;;;;0.97;0.50;;;21.00;99.90;;;;;;5010145;28;21067;-49
2022/08/06 10:54:15;;;;;;;1.53;0.50;;;21.40;99.90;;;;;;5010565;28;20511;-49
2022/08/06 10:56:42;;;;;;;0.60;0.50;;;21.20;99.90;;;;;;5011067;28;20898;-50
2022/08/06 10:59:14;;;;;;;0.60;0.33;;;21.00;99.90;;;;;;5004367;28;20468;-50
2022/08/06 11:01:47;;;;;;;5.03;0.73;;;20.80;99.90;;;;;;5007848;28;20499;-50
2022/08/06 11:04:34;;;;;;;0.70;0.47;;;20.70;99.90;;;;;;5012266;28;20514;-49
2022/08/06 11:07:30;;;;;;;0.90;0.47;;;20.60;99.90;;;;;;5011692;28;20507;-49
2022/08/06 11:10:11;;;;;;;0.60;0.50;;;21.00;99.90;;;;;;5023701;28;20431;-49
2022/08/06 11:12:49;;;;;;;0.70;0.47;;;21.30;99.90;;;;;;5009259;28;20484;-49
2022/08/06 11:15:18;;;;;;;0.80;0.40;;;21.30;99.90;;;;;;5010403;28;20493;-48
2022/08/06 11:17:46;;;;;;;0.73;0.40;;;21.20;99.90;;;;;;5006035;28;20557;-49
2022/08/06 11:20:36;;;;;;;1.57;0.67;;;21.00;99.90;;;;;;5011181;28;20466;-50
2022/08/06 11:23:04;;;;;;;1.27;0.60;;;20.70;99.90;;;;;;5008838;28;20543;-48
2022/08/06 11:25:41;;;;;;;8.03;0.60;;;20.50;99.90;;;;;;5009777;28;20515;-49
2022/08/06 11:28:09;;;;;;;2.53;0.60;;;20.30;99.90;;;;;;5012185;28;20569;-50
2022/08/06 11:30:45;;;;;;;1.17;0.50;;;20.40;99.90;;;;;;5005115;28;21046;-50
2022/08/06 11:33:13;;;;;;;0.50;0.30;;;20.70;99.90;;;;;;5003802;28;20828;-49
2022/08/06 11:35:43;;;;;;;0.60;0.57;;;20.90;99.90;;;;;;5009782;28;20548;-50
2022/08/06 11:38:12;;;;;;;1.37;0.57;;;21.30;99.90;;;;;;5018017;28;20870;-49
2022/08/06 11:41:00;;;;;;;4.13;0.40;;;21.30;99.90;;;;;;5007409;28;20634;-49
2022/08/06 11:43:47;;;;;;;1.23;0.60;;;21.10;99.90;;;;;;5007973;28;20459;-50
2022/08/06 11:46:23;;;;;;;3.50;0.50;;;21.10;99.90;;;;;;5008820;28;20487;-50
2022/08/06 11:49:16;;;;;;;2.30;1.00;;;21.00;99.90;;;;;;5009463;28;20487;-50
2022/08/06 11:51:43;;;;;;;2.60;1.50;;;21.00;99.90;;;;;;5010606;28;20460;-54
2022/08/06 11:54:15;;;;;;;0.73;0.60;;;21.10;99.90;;;;;;5010951;28;20545;-53
2022/08/06 11:57:18;;;;;;;0.93;0.90;;;21.20;99.90;;;;;;5009418;28;20507;-54
2022/08/06 11:59:48;;;;;;;2.43;0.73;;;21.50;99.90;;;;;;5004407;28;20487;-54
2022/08/06 12:02:37;;;;;;;0.50;0.33;;;21.70;99.90;;;;;;5004649;28;20502;-54
2022/08/06 12:05:06;;;;;;;0.67;0.37;;;22.00;99.90;;;;;;5008350;28;20452;-54
2022/08/06 12:07:36;;;;;;;1.83;0.60;;;22.30;99.90;;;;;;5000568;28;20979;-53
2022/08/06 12:10:10;;;;;;;3.47;2.20;;;22.50;99.90;;;;;;5002984;28;20868;-54
2022/08/06 12:12:39;;;;;;;0.90;0.50;;;22.40;99.90;;;;;;5003921;28;20519;-55
2022/08/06 12:15:37;;;;;;;2.13;0.60;;;22.50;99.90;;;;;;5011523;28;20479;-54
2022/08/06 12:18:05;;;;;;;0.70;0.60;;;22.40;99.90;;;;;;4999994;28;20464;-55
2022/08/06 12:20:35;;;;;;;2.07;0.90;;;22.20;99.90;;;;;;5007821;28;20479;-55
2022/08/06 12:23:04;;;;;;;2.13;0.73;;;22.30;99.90;;;;;;5003979;28;20463;-54
2022/08/06 12:25:32;;;;;;;0.67;0.50;;;22.10;99.90;;;;;;5010321;28;20485;-55
2022/08/06 12:28:00;;;;;;;0.80;0.60;;;22.10;99.90;;;;;;5010938;28;20483;-54
2022/08/06 12:30:26;;;;;;;1.20;1.07;;;21.90;99.90;;;;;;5011192;28;20463;-54
2022/08/06 12:33:00;;;;;;;1.90;0.60;;;21.90;99.90;;;;;;5009124;28;20468;-53
2022/08/06 12:35:27;;;;;;;2.50;1.83;;;21.80;99.90;;;;;;5011085;28;20932;-55
2022/08/06 12:37:55;;;;;;;1.57;1.47;;;21.80;99.90;;;;;;5004961;28;20468;-53
2022/08/06 12:40:27;;;;;;;1.73;1.40;;;21.90;99.90;;;;;;5008219;28;20469;-54
2022/08/06 12:43:09;;;;;;;1.50;1.00;;;21.70;99.90;;;;;;5009459;28;20455;-54
2022/08/06 12:45:37;;;;;;;3.47;0.97;;;21.70;99.90;;;;;;5007575;28;20511;-53
2022/08/06 12:48:06;;;;;;;7.30;1.37;;;21.50;99.90;;;;;;5008169;28;20547;-53
2022/08/06 12:50:35;;;;;;;2.30;0.87;;;21.50;99.90;;;;;;5006021;28;20463;-53
2022/08/06 12:53:05;;;;;;;2.83;1.50;;;21.50;99.90;;;;;;5005005;28;20553;-54
2022/08/06 12:55:32;;;;;;;3.33;1.77;;;21.40;99.90;;;;;;5007528;28;20487;-54
2022/08/06 12:58:00;;;;;;;1.10;1.00;;;21.30;99.90;;;;;;5009826;28;20468;-54
2022/08/06 13:00:27;;;;;;;1.83;1.30;;;21.40;99.90;;;;;;5008933;28;20791;-54
2022/08/06 13:02:55;;;;;;;4.07;1.70;;;21.70;99.90;;;;;;5004883;28;20464;-52
2022/08/06 13:05:26;;;;;;;0.77;0.70;;;21.90;99.90;;;;;;5002543;28;20483;-53